Disclaimer

Please do not use the information listed here in-flight or in-navigation, as they are not provided to us by the airports but are provided by volunteers, so they might be outdated.

Search


Regions


Airport information page

Radio informations:
Tower (TWR) - 118.7 MHz
LIBREVILLE RDO - 6666 MHz
A/G VOICE RDO - 6559 MHz

Airport informations:
Latitude: 00° 27' 30.96" N
Longitude: 009° 24' 44.22" E
Elevation: 39 feet - 12 meters
Operating hours: 24 hour operations
Operating agency: Military-civil joint use airport
Timezone: UTC+1
Fuel: Jet A1, without icing nhibitor.

100/130 MIL Spec, low lead, aviation gasoline (BLUE)

Runway information:
16/34 - 9844 x 148 feet< - >3000 x 45 meters

Recent METARs:
FOOL 160230Z 20005KT 2500 TSRA SCT009 BKN014 FEW018CB 25/24 Q1013 TEMPO 0800 +TSRA
FOOL 160230Z 20005KT 2500 TSRA SCT009 BKN014 FEW018CB 25/24 Q1013 TEMPO 0800 +TSRA
FOOL 160330Z 19005KT 6000 -TSRA FEW009 SCT012 FEW018CB 25/24 Q1013 TEMPO 3000 TSRA

Airport on the map: